createdAt,value
2023-08-11T00:01:06.138Z,3.25
2023-08-11T00:03:34.431Z,5.40
2023-08-11T00:06:01.133Z,5.93
2023-08-11T00:08:27.908Z,5.05
2023-08-11T00:10:54.536Z,6.35
2023-08-11T00:13:21.142Z,6.55
2023-08-11T00:15:47.793Z,4.18
2023-08-11T00:18:14.430Z,6.27
2023-08-11T00:20:42.552Z,5.63
2023-08-11T00:23:09.156Z,3.92
2023-08-11T00:25:35.780Z,8.57
2023-08-11T00:28:02.392Z,4.72
2023-08-11T00:30:29.028Z,3.33
2023-08-11T00:32:55.724Z,6.90
2023-08-11T00:35:22.657Z,7.93
2023-08-11T00:37:50.868Z,5.20
2023-08-11T00:40:17.733Z,5.03
2023-08-11T00:42:44.604Z,7.27
2023-08-11T00:45:11.213Z,4.05
2023-08-11T00:47:41.036Z,5.45
2023-08-11T00:50:08.637Z,5.50
2023-08-11T00:52:35.550Z,3.53
2023-08-11T00:55:04.672Z,4.43
2023-08-11T00:57:31.293Z,3.72
2023-08-11T00:59:59.088Z,5.63
2023-08-11T01:02:25.921Z,6.40
2023-08-11T01:04:52.756Z,8.23
2023-08-11T01:07:24.217Z,5.20
2023-08-11T01:09:59.965Z,8.65
2023-08-11T01:12:35.531Z,3.83
2023-08-11T01:15:11.405Z,4.90
2023-08-11T01:17:39.974Z,4.22
2023-08-11T01:20:08.829Z,6.50
2023-08-11T01:22:37.337Z,6.10
2023-08-11T01:25:07.380Z,6.63
2023-08-11T01:27:36.031Z,7.20
2023-08-11T01:30:02.739Z,6.82
2023-08-11T01:32:29.361Z,11.70
2023-08-11T01:34:56.113Z,11.40
2023-08-11T01:37:23.012Z,8.68
2023-08-11T01:39:49.661Z,6.63
2023-08-11T01:42:17.830Z,8.02
2023-08-11T01:44:44.630Z,6.47
2023-08-11T01:47:11.595Z,8.90
2023-08-11T01:49:38.363Z,8.65
2023-08-11T01:52:05.408Z,6.75
2023-08-11T01:54:32.085Z,6.97
2023-08-11T01:56:59.181Z,6.03
2023-08-11T01:59:27.182Z,5.95
2023-08-11T02:01:53.924Z,4.93
2023-08-11T02:04:20.666Z,4.35
2023-08-11T02:06:47.261Z,9.32
2023-08-11T02:09:13.838Z,6.53
2023-08-11T02:11:40.990Z,3.25
2023-08-11T02:14:07.617Z,8.10
2023-08-11T02:16:36.875Z,4.43
2023-08-11T02:19:03.870Z,4.18
2023-08-11T02:21:30.460Z,5.97
2023-08-11T02:23:57.285Z,2.65
2023-08-11T02:26:24.016Z,3.58
2023-08-11T02:28:50.840Z,6.57
2023-08-11T02:31:17.816Z,4.13
2023-08-11T02:33:46.052Z,3.27
2023-08-11T02:36:12.764Z,3.83
2023-08-11T02:38:39.502Z,3.50
2023-08-11T02:41:06.126Z,5.57
2023-08-11T02:43:33.102Z,5.10
2023-08-11T02:45:59.719Z,3.23
2023-08-11T02:48:26.371Z,4.28
2023-08-11T02:50:54.472Z,2.97
2023-08-11T02:53:21.093Z,4.43
2023-08-11T02:55:47.692Z,5.80
2023-08-11T02:58:14.341Z,5.13
2023-08-11T03:00:40.913Z,8.32
2023-08-11T03:03:07.605Z,3.42
2023-08-11T03:05:34.659Z,2.58
2023-08-11T03:08:02.916Z,4.95
2023-08-11T03:10:32.664Z,2.43
2023-08-11T03:13:03.933Z,2.35
2023-08-11T03:15:30.651Z,3.35
2023-08-11T03:17:57.346Z,4.75
2023-08-11T03:20:24.167Z,2.10
2023-08-11T03:22:50.766Z,3.77
2023-08-11T03:25:18.744Z,3.95
2023-08-11T03:27:45.517Z,2.88
2023-08-11T03:30:13.368Z,2.10
2023-08-11T03:32:40.618Z,7.28
2023-08-11T03:35:08.122Z,2.93
2023-08-11T03:37:35.301Z,2.40
2023-08-11T03:40:02.092Z,3.25
2023-08-11T03:42:30.059Z,3.17
2023-08-11T03:44:56.887Z,2.25
2023-08-11T03:47:23.513Z,2.33
2023-08-11T03:49:50.287Z,3.08
2023-08-11T03:52:16.893Z,5.88
2023-08-11T03:54:45.552Z,2.72
2023-08-11T03:57:12.678Z,5.00
2023-08-11T03:59:40.633Z,3.80
2023-08-11T04:02:07.462Z,5.43
2023-08-11T04:04:34.393Z,3.38
2023-08-11T04:07:01.027Z,6.07
2023-08-11T04:09:27.644Z,2.88
2023-08-11T04:11:54.478Z,4.63
2023-08-11T04:14:21.089Z,2.38
2023-08-11T04:16:49.181Z,2.63
2023-08-11T04:19:15.989Z,4.45
2023-08-11T04:21:42.656Z,2.45
2023-08-11T04:24:10.163Z,2.93
2023-08-11T04:26:36.776Z,2.47
2023-08-11T04:29:03.765Z,3.78
2023-08-11T04:31:30.707Z,4.90
2023-08-11T04:33:58.744Z,2.13
2023-08-11T04:36:25.425Z,3.43
2023-08-11T04:38:52.369Z,2.67
2023-08-11T04:41:19.010Z,3.40
2023-08-11T04:43:45.696Z,2.97
2023-08-11T04:46:12.384Z,2.72
2023-08-11T04:48:39.027Z,4.70
2023-08-11T04:51:07.035Z,2.58
2023-08-11T04:53:33.786Z,3.40
2023-08-11T04:56:00.641Z,3.80
2023-08-11T04:58:27.274Z,3.45
2023-08-11T05:00:53.899Z,2.53
2023-08-11T05:03:20.783Z,4.47
2023-08-11T05:05:47.492Z,3.00
2023-08-11T05:08:15.609Z,2.88
2023-08-11T05:10:42.238Z,2.65
2023-08-11T05:13:08.868Z,4.53
2023-08-11T05:15:35.507Z,2.60
2023-08-11T05:18:02.242Z,2.25
2023-08-11T05:20:28.888Z,3.83
2023-08-11T05:22:55.493Z,2.88
2023-08-11T05:25:23.612Z,4.17
2023-08-11T05:27:50.198Z,3.05
2023-08-11T05:30:17.181Z,3.60
2023-08-11T05:32:44.076Z,3.38
2023-08-11T05:35:10.761Z,3.20
2023-08-11T05:37:37.411Z,4.30
2023-08-11T05:40:04.730Z,2.20
2023-08-11T05:42:33.783Z,3.28
2023-08-11T05:45:00.387Z,4.30
2023-08-11T05:47:27.048Z,2.03
2023-08-11T05:49:53.908Z,4.43
2023-08-11T05:52:20.595Z,5.20
2023-08-11T05:54:47.207Z,3.03
2023-08-11T05:57:13.883Z,2.75
2023-08-11T05:59:41.889Z,4.60
2023-08-11T06:02:08.538Z,4.80
2023-08-11T06:04:36.292Z,9.38
2023-08-11T06:07:03.066Z,3.00
2023-08-11T06:09:29.966Z,4.30
2023-08-11T06:11:58.538Z,4.07
2023-08-11T06:14:25.328Z,2.80
2023-08-11T06:16:53.310Z,5.45
2023-08-11T06:19:21.546Z,5.38
2023-08-11T06:21:48.277Z,5.22
2023-08-11T06:24:14.937Z,4.63
2023-08-11T06:26:41.640Z,3.37
2023-08-11T06:29:08.308Z,4.35
2023-08-11T06:31:36.606Z,2.92
2023-08-11T06:34:04.787Z,8.25
2023-08-11T06:36:31.454Z,2.63
2023-08-11T06:38:58.360Z,3.70
2023-08-11T06:41:25.352Z,3.33
2023-08-11T06:43:51.999Z,2.50
2023-08-11T06:46:18.669Z,4.90
2023-08-11T06:48:48.353Z,2.80
2023-08-11T06:51:16.356Z,2.43
2023-08-11T06:53:42.985Z,6.22
2023-08-11T06:56:10.136Z,3.45
2023-08-11T06:58:36.792Z,6.10
2023-08-11T07:01:03.457Z,4.93
2023-08-11T07:03:30.297Z,3.93
2023-08-11T07:05:57.023Z,3.55
2023-08-11T07:08:25.101Z,3.38
2023-08-11T07:10:51.742Z,2.92
2023-08-11T07:13:18.664Z,2.88
2023-08-11T07:15:45.374Z,4.13
2023-08-11T07:18:12.464Z,2.67
2023-08-11T07:20:41.787Z,3.65
2023-08-11T07:23:08.511Z,2.78
2023-08-11T07:25:36.893Z,5.07
2023-08-11T07:28:04.211Z,3.10
2023-08-11T07:30:30.860Z,3.42
2023-08-11T07:32:57.995Z,3.03
2023-08-11T07:35:24.953Z,3.92
2023-08-11T07:37:51.589Z,4.97
2023-08-11T07:40:20.303Z,7.13
2023-08-11T07:42:55.845Z,2.33
2023-08-11T07:45:22.492Z,2.67
2023-08-11T07:47:51.975Z,5.15
2023-08-11T07:50:18.817Z,4.65
2023-08-11T07:52:45.483Z,4.63
2023-08-11T07:55:12.251Z,4.57
2023-08-11T07:57:39.411Z,5.13
2023-08-11T08:00:08.618Z,2.35
2023-08-11T08:02:35.319Z,3.47
2023-08-11T08:05:11.651Z,3.87
2023-08-11T08:07:39.769Z,7.78
2023-08-11T08:10:08.739Z,6.95
2023-08-11T08:12:37.161Z,5.95
2023-08-11T08:15:05.354Z,2.80
2023-08-11T08:17:33.435Z,3.27
2023-08-11T08:20:00.147Z,3.92
2023-08-11T08:22:26.987Z,6.15
2023-08-11T08:24:53.710Z,2.50
2023-08-11T08:27:20.435Z,3.33
2023-08-11T08:29:49.370Z,5.07
2023-08-11T08:32:16.033Z,4.80
2023-08-11T08:34:44.068Z,3.00
2023-08-11T08:37:10.944Z,3.08
2023-08-11T08:39:42.205Z,3.05
2023-08-11T08:42:09.990Z,5.67
2023-08-11T08:44:37.636Z,2.33
2023-08-11T08:47:10.358Z,5.03
2023-08-11T08:49:37.471Z,2.97
2023-08-11T08:52:06.856Z,7.68
2023-08-11T08:54:33.737Z,2.93
2023-08-11T08:57:01.481Z,3.60
2023-08-11T08:59:28.626Z,6.38
2023-08-11T09:01:55.715Z,2.85
2023-08-11T09:04:23.649Z,5.50
2023-08-11T09:06:53.376Z,3.00
2023-08-11T09:09:21.359Z,5.80
2023-08-11T09:11:48.149Z,4.95
2023-08-11T09:14:20.750Z,3.58
2023-08-11T09:16:47.684Z,5.85
2023-08-11T09:19:14.384Z,5.00
2023-08-11T09:21:42.092Z,2.85
2023-08-11T09:24:10.019Z,4.57
2023-08-11T09:26:38.139Z,3.03
2023-08-11T09:29:05.553Z,2.83
2023-08-11T09:31:32.337Z,7.93
2023-08-11T09:34:11.538Z,5.18
2023-08-11T09:36:38.195Z,4.38
2023-08-11T09:39:07.978Z,2.10
2023-08-11T09:41:40.811Z,4.47
2023-08-11T09:44:07.749Z,3.43
2023-08-11T09:46:37.340Z,4.13
2023-08-11T09:49:04.309Z,6.43
2023-08-11T09:51:33.986Z,6.70
2023-08-11T09:54:04.351Z,3.85
2023-08-11T09:56:32.465Z,4.03
2023-08-11T09:59:03.295Z,3.50
2023-08-11T10:01:34.451Z,6.95
2023-08-11T10:04:05.957Z,4.82
2023-08-11T10:06:33.229Z,3.72
2023-08-11T10:09:11.050Z,4.77
2023-08-11T10:11:38.210Z,4.43
2023-08-11T10:14:06.486Z,5.57
2023-08-11T10:16:33.941Z,2.60
2023-08-11T10:19:01.969Z,3.17
2023-08-11T10:21:28.787Z,4.37
2023-08-11T10:23:55.614Z,8.45
2023-08-11T10:26:23.193Z,2.88
2023-08-11T10:28:51.703Z,6.15
2023-08-11T10:31:23.398Z,4.85
2023-08-11T10:33:50.874Z,3.80
2023-08-11T10:36:22.994Z,3.20
2023-08-11T10:39:00.428Z,3.08
2023-08-11T10:41:28.542Z,3.58
2023-08-11T10:43:58.594Z,4.72
2023-08-11T10:46:33.040Z,3.17
2023-08-11T10:49:21.482Z,5.82
2023-08-11T10:51:51.223Z,3.78
2023-08-11T10:54:23.806Z,3.40
2023-08-11T10:56:52.779Z,3.88
2023-08-11T10:59:22.814Z,3.03
2023-08-11T11:01:54.058Z,5.55
2023-08-11T11:04:22.599Z,4.57
2023-08-11T11:06:50.516Z,3.72
2023-08-11T11:09:19.172Z,3.95
2023-08-11T11:11:47.465Z,3.50
2023-08-11T11:14:14.478Z,4.47
2023-08-11T11:16:41.806Z,5.03
2023-08-11T11:19:10.878Z,4.47
2023-08-11T11:21:39.881Z,4.47
2023-08-11T11:24:09.651Z,5.57
2023-08-11T11:26:36.322Z,4.75
2023-08-11T11:29:04.977Z,6.75
2023-08-11T11:31:33.870Z,6.75
2023-08-11T11:34:01.547Z,7.68
2023-08-11T11:36:30.839Z,6.43
2023-08-11T11:38:57.624Z,5.90
2023-08-11T11:41:27.031Z,5.65
2023-08-11T11:43:54.024Z,6.25
2023-08-11T11:46:21.816Z,5.68
2023-08-11T11:48:50.927Z,6.63
2023-08-11T11:51:19.052Z,4.43
2023-08-11T11:53:52.751Z,6.57
2023-08-11T11:56:19.706Z,4.30
2023-08-11T11:58:46.950Z,5.85
2023-08-11T12:01:15.797Z,8.33
2023-08-11T12:03:44.268Z,4.35
2023-08-11T12:06:11.114Z,5.97
2023-08-11T12:08:40.869Z,6.72
2023-08-11T12:11:10.201Z,7.88
2023-08-11T12:13:39.219Z,9.43
2023-08-11T12:16:07.721Z,3.55
2023-08-11T12:18:35.048Z,5.50
2023-08-11T12:21:02.262Z,7.70
2023-08-11T12:23:29.139Z,11.05
2023-08-11T12:25:56.138Z,4.53
2023-08-11T12:28:24.407Z,4.38
2023-08-11T12:30:51.169Z,4.93
2023-08-11T12:33:20.298Z,10.65
2023-08-11T12:35:48.112Z,6.25
2023-08-11T12:38:15.247Z,6.17
2023-08-11T12:40:42.244Z,7.30
2023-08-11T12:43:11.356Z,7.57
2023-08-11T12:45:43.268Z,7.72
2023-08-11T12:48:10.289Z,6.43
2023-08-11T12:50:37.737Z,4.57
2023-08-11T12:53:05.748Z,3.30
2023-08-11T12:55:33.430Z,4.45
2023-08-11T12:58:01.189Z,4.03
2023-08-11T13:00:30.735Z,7.32
2023-08-11T13:02:58.812Z,5.10
2023-08-11T13:05:25.682Z,7.53
2023-08-11T13:07:53.645Z,5.28
2023-08-11T13:10:20.346Z,3.15
2023-08-11T13:12:49.051Z,7.68
2023-08-11T13:15:15.993Z,3.57
2023-08-11T13:17:44.157Z,5.03
2023-08-11T13:20:12.775Z,6.63
2023-08-11T13:22:41.984Z,4.72
2023-08-11T13:25:09.517Z,6.85
2023-08-11T13:27:37.453Z,5.40
2023-08-11T13:30:05.273Z,5.28
2023-08-11T13:32:32.045Z,5.10
2023-08-11T13:34:58.846Z,5.70
2023-08-11T13:37:28.308Z,3.42
2023-08-11T13:39:54.863Z,4.60
2023-08-11T13:42:21.554Z,6.40
2023-08-11T13:44:48.175Z,5.60
2023-08-11T13:47:14.813Z,4.18
2023-08-11T13:49:41.615Z,5.63
2023-08-11T13:52:08.625Z,3.97
2023-08-11T13:54:37.668Z,5.25
2023-08-11T13:57:04.333Z,5.10
2023-08-11T13:59:31.215Z,6.78
2023-08-11T14:01:58.254Z,7.35
2023-08-11T14:04:24.967Z,4.13
2023-08-11T14:06:51.599Z,5.53
2023-08-11T14:09:18.259Z,7.68
2023-08-11T14:11:49.479Z,5.28
2023-08-11T14:14:16.172Z,7.25
2023-08-11T14:16:43.153Z,5.20
2023-08-11T14:19:10.088Z,5.22
2023-08-11T14:21:36.881Z,6.75
2023-08-11T14:24:07.117Z,3.58
2023-08-11T14:26:33.869Z,3.20
2023-08-11T14:29:01.840Z,4.07
2023-08-11T14:31:28.411Z,6.03
2023-08-11T14:33:55.104Z,3.65
2023-08-11T14:36:21.871Z,6.60
2023-08-11T14:38:48.480Z,3.33
2023-08-11T14:41:15.060Z,4.13
2023-08-11T14:43:43.776Z,4.07
2023-08-11T14:46:11.753Z,4.20
2023-08-11T14:48:38.458Z,3.30
2023-08-11T14:51:05.804Z,5.38
2023-08-11T14:53:32.735Z,4.93
2023-08-11T14:55:59.680Z,8.10
2023-08-11T14:58:26.350Z,4.93
2023-08-11T15:00:53.495Z,5.88
2023-08-11T15:03:21.714Z,3.72
2023-08-11T15:05:48.363Z,5.03
2023-08-11T15:08:14.986Z,4.63
2023-08-11T15:10:41.808Z,6.65
2023-08-11T15:13:08.760Z,3.90
2023-08-11T15:15:35.366Z,4.97
2023-08-11T15:18:02.081Z,6.17
2023-08-11T15:20:30.324Z,6.13
2023-08-11T15:22:57.559Z,5.43
2023-08-11T15:25:24.125Z,6.93
2023-08-11T15:27:50.919Z,5.68
2023-08-11T15:30:17.650Z,10.90
2023-08-11T15:32:44.313Z,10.52
2023-08-11T15:35:11.127Z,8.15
2023-08-11T15:37:39.148Z,6.70
2023-08-11T15:40:07.263Z,3.60
2023-08-11T15:42:34.090Z,8.00
2023-08-11T15:45:00.720Z,4.35
2023-08-11T15:47:27.474Z,5.35
2023-08-11T15:49:54.321Z,4.03
2023-08-11T15:52:21.113Z,8.60
2023-08-11T15:54:49.066Z,5.10
2023-08-11T15:57:15.842Z,5.43
2023-08-11T15:59:42.500Z,3.45
2023-08-11T16:02:11.026Z,5.32
2023-08-11T16:04:37.990Z,5.75
2023-08-11T16:07:05.087Z,4.50
2023-08-11T16:09:31.908Z,8.15
2023-08-11T16:11:59.955Z,8.63
2023-08-11T16:14:26.547Z,9.05
2023-08-11T16:16:53.251Z,8.25
2023-08-11T16:19:20.041Z,4.10
2023-08-11T16:21:46.697Z,3.85
2023-08-11T16:24:16.285Z,3.78
2023-08-11T16:26:43.493Z,6.43
2023-08-11T16:29:11.728Z,6.93
2023-08-11T16:31:38.575Z,4.93
2023-08-11T16:34:05.731Z,8.65
2023-08-11T16:36:32.428Z,5.95
2023-08-11T16:38:59.036Z,4.78
2023-08-11T16:41:27.936Z,3.70
2023-08-11T16:43:54.562Z,6.20
2023-08-11T16:46:22.618Z,4.00
2023-08-11T16:48:51.222Z,4.00
2023-08-11T16:51:17.996Z,5.60
2023-08-11T16:53:44.546Z,5.43
2023-08-11T16:56:11.175Z,4.50
2023-08-11T16:58:37.836Z,5.85
2023-08-11T17:01:06.588Z,3.95
2023-08-11T17:03:37.756Z,6.43
2023-08-11T17:06:04.476Z,6.10
2023-08-11T17:08:31.394Z,3.60
2023-08-11T17:10:58.661Z,4.47
2023-08-11T17:13:25.365Z,3.58
2023-08-11T17:15:52.140Z,4.35
2023-08-11T17:18:18.920Z,3.83
2023-08-11T17:20:46.977Z,5.23
2023-08-11T17:23:13.769Z,3.47
2023-08-11T17:25:40.447Z,6.55
2023-08-11T17:28:07.201Z,5.70
2023-08-11T17:30:33.828Z,4.00
2023-08-11T17:33:00.508Z,5.50
2023-08-11T17:35:27.108Z,5.72
2023-08-11T17:37:59.971Z,5.22
2023-08-11T17:40:26.616Z,5.78
2023-08-11T17:42:56.316Z,7.63
2023-08-11T17:45:23.377Z,5.47
2023-08-11T17:47:50.031Z,4.60
2023-08-11T17:50:17.168Z,5.78
2023-08-11T17:52:47.374Z,5.80
2023-08-11T17:55:15.922Z,10.70
2023-08-11T17:57:42.815Z,9.43
2023-08-11T18:00:10.551Z,6.72
2023-08-11T18:02:37.469Z,8.50
2023-08-11T18:05:04.369Z,5.40
2023-08-11T18:07:31.126Z,4.47
2023-08-11T18:09:58.295Z,10.60
2023-08-11T18:12:26.351Z,7.70
2023-08-11T18:14:54.014Z,6.13
2023-08-11T18:17:20.914Z,8.43
2023-08-11T18:19:47.789Z,3.75
2023-08-11T18:22:14.473Z,3.60
2023-08-11T18:24:41.284Z,6.03
2023-08-11T18:27:08.249Z,5.45
2023-08-11T18:29:36.327Z,5.72
2023-08-11T18:32:03.343Z,5.07
2023-08-11T18:34:29.991Z,5.43
2023-08-11T18:36:57.033Z,5.53
2023-08-11T18:39:23.734Z,6.03
2023-08-11T18:41:50.339Z,6.00
2023-08-11T18:44:17.099Z,3.70
2023-08-11T18:46:45.361Z,6.97
2023-08-11T18:49:12.226Z,6.80
2023-08-11T18:51:38.888Z,4.07
2023-08-11T18:54:06.044Z,6.53
2023-08-11T18:56:32.673Z,11.40
2023-08-11T18:58:59.381Z,10.43
2023-08-11T19:01:26.026Z,5.53
2023-08-11T19:03:55.418Z,6.63
2023-08-11T19:06:22.150Z,7.78
2023-08-11T19:08:48.748Z,6.85
2023-08-11T19:11:15.584Z,3.90
2023-08-11T19:13:43.207Z,11.32
2023-08-11T19:16:11.243Z,6.07
2023-08-11T19:18:37.913Z,5.90
2023-08-11T19:21:05.933Z,7.57
2023-08-11T19:23:32.536Z,8.53
2023-08-11T19:25:59.254Z,11.77
2023-08-11T19:28:25.926Z,6.43
2023-08-11T19:30:52.702Z,9.20
2023-08-11T19:33:19.370Z,5.93
2023-08-11T19:35:48.943Z,6.67
2023-08-11T19:38:17.271Z,8.63
2023-08-11T19:40:45.019Z,9.52
2023-08-11T19:43:11.909Z,5.28
2023-08-11T19:45:40.461Z,5.93
2023-08-11T19:48:07.506Z,9.30
2023-08-11T19:50:34.290Z,7.30
2023-08-11T19:53:00.887Z,5.57
2023-08-11T19:55:28.951Z,9.27
2023-08-11T19:57:55.709Z,10.73
2023-08-11T20:00:22.489Z,9.30
2023-08-11T20:02:50.625Z,13.88
2023-08-11T20:05:17.949Z,10.00
2023-08-11T20:07:44.534Z,11.23
2023-08-11T20:10:11.494Z,7.88
2023-08-11T20:12:41.919Z,9.87
2023-08-11T20:15:09.725Z,10.93
2023-08-11T20:17:36.404Z,7.82
2023-08-11T20:20:03.780Z,8.23
2023-08-11T20:22:30.444Z,14.25
2023-08-11T20:24:57.320Z,8.73
2023-08-11T20:27:24.163Z,12.35
2023-08-11T20:29:52.188Z,7.57
2023-08-11T20:32:18.865Z,14.23
2023-08-11T20:34:45.491Z,13.55
2023-08-11T20:37:12.472Z,9.73
2023-08-11T20:39:39.501Z,15.50
2023-08-11T20:42:06.123Z,9.00
2023-08-11T20:44:32.782Z,13.32
2023-08-11T20:47:00.748Z,12.20
2023-08-11T20:49:27.334Z,10.67
2023-08-11T20:51:53.962Z,8.98
2023-08-11T20:54:20.724Z,7.47
2023-08-11T20:56:47.350Z,8.35
2023-08-11T20:59:14.117Z,5.68
2023-08-11T21:01:40.762Z,8.00
2023-08-11T21:04:09.569Z,7.38
2023-08-11T21:06:36.276Z,5.88
2023-08-11T21:09:03.361Z,8.63
2023-08-11T21:11:30.137Z,6.60
2023-08-11T21:13:56.923Z,7.17
2023-08-11T21:16:23.695Z,9.88
2023-08-11T21:18:50.355Z,9.40
2023-08-11T21:21:18.339Z,8.68
2023-08-11T21:23:45.115Z,10.02
2023-08-11T21:26:11.736Z,11.50
2023-08-11T21:28:38.647Z,12.75
2023-08-11T21:31:17.658Z,14.48
2023-08-11T21:33:45.056Z,13.52
2023-08-11T21:36:11.809Z,14.57
2023-08-11T21:38:40.237Z,15.87
2023-08-11T21:41:07.179Z,14.80
2023-08-11T21:43:33.815Z,14.32
2023-08-11T21:46:00.502Z,11.68
2023-08-11T21:48:27.220Z,15.32
2023-08-11T21:50:53.966Z,11.63
2023-08-11T21:53:23.590Z,12.43
2023-08-11T21:55:52.718Z,15.55
2023-08-11T21:58:19.521Z,19.30
2023-08-11T22:00:46.265Z,17.70
2023-08-11T22:03:13.173Z,16.10
2023-08-11T22:05:40.259Z,15.73
2023-08-11T22:08:06.910Z,16.15
2023-08-11T22:10:33.615Z,15.90
2023-08-11T22:13:01.625Z,18.10
2023-08-11T22:15:28.491Z,20.07
2023-08-11T22:17:55.141Z,16.38
2023-08-11T22:20:21.916Z,16.45
2023-08-11T22:22:48.525Z,20.33
2023-08-11T22:25:15.248Z,24.40
2023-08-11T22:27:42.093Z,20.43
2023-08-11T22:30:11.300Z,19.75
2023-08-11T22:32:37.926Z,23.25
2023-08-11T22:35:06.672Z,20.10
2023-08-11T22:37:33.296Z,19.45
2023-08-11T22:39:59.966Z,17.10
2023-08-11T22:42:27.907Z,20.05
2023-08-11T22:44:55.450Z,22.63
2023-08-11T22:47:23.848Z,22.23
2023-08-11T22:49:50.830Z,20.23
2023-08-11T22:52:17.945Z,19.33
2023-08-11T22:54:44.536Z,19.42
2023-08-11T22:57:11.497Z,22.13
2023-08-11T22:59:38.584Z,18.15
2023-08-11T23:02:05.362Z,22.67
2023-08-11T23:04:33.399Z,18.17
2023-08-11T23:07:00.214Z,16.63
2023-08-11T23:09:26.794Z,17.05
2023-08-11T23:11:53.571Z,19.88
2023-08-11T23:14:20.198Z,19.80
2023-08-11T23:16:46.882Z,17.97
2023-08-11T23:19:13.994Z,19.60
2023-08-11T23:21:42.186Z,16.48
2023-08-11T23:24:09.378Z,19.73
2023-08-11T23:26:36.360Z,16.88
2023-08-11T23:29:03.247Z,16.83
2023-08-11T23:31:30.062Z,18.63
2023-08-11T23:33:57.466Z,19.10
2023-08-11T23:36:24.112Z,23.92
2023-08-11T23:38:52.145Z,19.17
2023-08-11T23:41:18.758Z,18.67
2023-08-11T23:43:45.578Z,18.58
2023-08-11T23:46:12.224Z,15.57
2023-08-11T23:48:39.127Z,17.25
2023-08-11T23:51:05.801Z,17.55
2023-08-11T23:53:32.573Z,16.63
2023-08-11T23:56:00.667Z,14.05
2023-08-11T23:58:27.364Z,17.17
